< < Back
Terminal Aerodrome Forecast


Current Version              Previous Versions:   1  2  3  4  5  6  7  8  9  

Terminal Aerodrome Forecast

479
FTUS42 KFFC 221900 AAA
TAFFTY
TAF AMD
KFTY 221948Z 2220/2318 31008KT P6SM VCSH SCT040
     FM230100 28003KT P6SM FEW070 SCT250
     FM231500 32007KT P6SM SCT040=

Latest METAR

583
SAUS70 KWBC 212300 RRV
MTRFTY
METAR KFTY 222253Z 33007KT 10SM -RA FEW037 BKN055 OVC070 32/23 A3002 RMK
AO2 RAB34 SLP156 P0000 T03170228


USA.gov is the U.S. government's official web portal to all federal, state and local government web resources and services.